Time;durP1;ratioP1;P1;durP2;ratioP2;P2;SDS_P1;SDS_P2;PMS_P1;PMS_P2;Temp;Humidity;BMP_temperature;BMP_pressure;BME280_temperature;BME280_humidity;BME280_pressure;Samples;Min_cycle;Max_cycle;Signal;HPM_P1;HPM_P2
2021/07/17 00:01:07;;;;;;;36.57;33.30;;;19.50;89.60;;;;;;4989858;28;20479;-71
2021/07/17 00:03:33;;;;;;;37.27;33.97;;;19.50;89.80;;;;;;4991563;28;20465;-71
2021/07/17 00:06:00;;;;;;;37.53;33.63;;;19.50;90.10;;;;;;4989973;28;20482;-71
2021/07/17 00:08:29;;;;;;;37.47;34.17;;;19.50;90.10;;;;;;4988416;28;20449;-70
2021/07/17 00:10:56;;;;;;;36.23;32.93;;;19.50;90.30;;;;;;4991076;28;20463;-71
2021/07/17 00:13:22;;;;;;;37.53;34.20;;;19.50;89.70;;;;;;4989017;28;20489;-71
2021/07/17 00:15:51;;;;;;;39.70;36.30;;;19.20;90.60;;;;;;4986524;28;20490;-70
2021/07/17 00:18:18;;;;;;;37.10;33.80;;;19.00;91.40;;;;;;4990112;28;20472;-70
2021/07/17 00:20:46;;;;;;;39.43;36.07;;;19.00;91.50;;;;;;4988955;28;20457;-70
2021/07/17 00:23:14;;;;;;;38.57;34.97;;;19.10;91.10;;;;;;4988654;28;20460;-70
2021/07/17 00:25:43;;;;;;;39.40;35.83;;;19.00;91.50;;;;;;4989893;28;20488;-70
2021/07/17 00:28:10;;;;;;;39.30;35.80;;;19.00;91.50;;;;;;4990242;28;20466;-70
2021/07/17 00:30:37;;;;;;;37.90;34.37;;;18.90;91.60;;;;;;4990596;28;20465;-71
2021/07/17 00:33:04;;;;;;;38.20;34.70;;;18.90;91.70;;;;;;4991184;28;20458;-70
2021/07/17 00:35:30;;;;;;;39.73;35.83;;;18.60;92.50;;;;;;4988359;28;20489;-71
2021/07/17 00:37:57;;;;;;;37.83;34.00;;;18.50;93.30;;;;;;4989201;28;20473;-71
2021/07/17 00:40:24;;;;;;;40.20;36.10;;;18.50;93.20;;;;;;4988851;28;20520;-70
2021/07/17 00:42:53;;;;;;;39.53;35.73;;;18.40;93.70;;;;;;4988155;28;20955;-71
2021/07/17 00:45:21;;;;;;;37.10;33.77;;;18.60;93.30;;;;;;4986184;28;20529;-70
2021/07/17 00:47:48;;;;;;;36.97;33.27;;;18.50;93.50;;;;;;4990093;28;20485;-70
2021/07/17 00:50:17;;;;;;;37.80;34.23;;;18.60;93.30;;;;;;4988309;28;20462;-70
2021/07/17 00:52:44;;;;;;;36.57;33.50;;;18.70;93.00;;;;;;4989068;28;20457;-71
2021/07/17 00:55:13;;;;;;;37.53;34.00;;;18.80;92.60;;;;;;4985522;28;21063;-71
2021/07/17 00:57:41;;;;;;;37.23;33.67;;;18.80;92.10;;;;;;4982566;28;20984;-71
2021/07/17 01:00:12;;;;;;;36.70;33.53;;;18.80;91.80;;;;;;4986898;28;20458;-71
2021/07/17 01:02:41;;;;;;;40.40;34.03;;;18.80;92.20;;;;;;4989393;28;20544;-71
2021/07/17 01:05:09;;;;;;;38.10;34.50;;;18.70;92.60;;;;;;4986087;28;21134;-70
2021/07/17 01:07:36;;;;;;;37.37;33.67;;;18.80;92.50;;;;;;4988020;28;20457;-70
2021/07/17 01:10:04;;;;;;;38.03;34.60;;;18.90;91.80;;;;;;4989422;28;20461;-70
2021/07/17 01:12:31;;;;;;;36.77;33.57;;;18.80;91.90;;;;;;4989087;28;20569;-70
2021/07/17 01:14:58;;;;;;;37.07;33.67;;;18.80;91.90;;;;;;4988743;28;20581;-70
2021/07/17 01:17:27;;;;;;;37.47;33.77;;;18.80;92.00;;;;;;4987460;28;20468;-70
2021/07/17 01:19:54;;;;;;;38.97;35.33;;;18.60;92.40;;;;;;4987965;28;20480;-70
2021/07/17 01:22:22;;;;;;;38.53;35.17;;;18.50;92.90;;;;;;4987908;28;20454;-70
2021/07/17 01:24:49;;;;;;;37.27;34.10;;;18.50;93.40;;;;;;4981621;28;20458;-70
2021/07/17 01:27:17;;;;;;;36.37;33.17;;;18.50;93.30;;;;;;4988663;28;21038;-70
2021/07/17 01:29:45;;;;;;;40.27;36.43;;;18.60;93.30;;;;;;4988777;28;20486;-70
2021/07/17 01:32:11;;;;;;;39.80;35.67;;;18.70;92.90;;;;;;4987830;28;20462;-70
2021/07/17 01:34:39;;;;;;;38.50;35.03;;;18.50;93.00;;;;;;4988094;28;20462;-70
2021/07/17 01:37:06;;;;;;;37.67;34.33;;;18.40;93.50;;;;;;4988924;28;20887;-70
2021/07/17 01:39:34;;;;;;;38.50;34.93;;;18.20;94.30;;;;;;4990975;28;20454;-70
2021/07/17 01:42:01;;;;;;;38.73;35.10;;;18.20;94.40;;;;;;4987911;28;20992;-70
2021/07/17 01:44:27;;;;;;;39.27;35.87;;;18.20;94.30;;;;;;4986450;28;20546;-70
2021/07/17 01:46:54;;;;;;;38.00;34.63;;;18.20;94.40;;;;;;4984458;28;20486;-70
2021/07/17 01:49:21;;;;;;;38.90;35.07;;;18.10;94.40;;;;;;4986769;28;20793;-70
2021/07/17 01:51:48;;;;;;;38.87;34.90;;;18.00;94.80;;;;;;4986984;28;20458;-70
2021/07/17 01:54:15;;;;;;;39.53;35.93;;;18.00;95.20;;;;;;4986660;28;20460;-70
2021/07/17 01:56:43;;;;;;;38.23;34.63;;;17.90;95.30;;;;;;4990277;28;20504;-70
2021/07/17 01:59:10;;;;;;;40.30;36.23;;;17.90;95.10;;;;;;4993158;28;20972;-70
2021/07/17 02:01:37;;;;;;;37.77;33.80;;;17.90;95.50;;;;;;4977419;28;20475;-70
2021/07/17 02:04:04;;;;;;;39.33;35.60;;;18.00;95.00;;;;;;4985637;28;20465;-70
2021/07/17 02:06:31;;;;;;;37.50;34.10;;;18.00;94.90;;;;;;4988146;28;20697;-70
2021/07/17 02:08:58;;;;;;;37.57;34.37;;;18.10;94.80;;;;;;4989012;28;20604;-70
2021/07/17 02:11:25;;;;;;;38.77;35.00;;;17.90;95.00;;;;;;4987688;28;20453;-70
2021/07/17 02:13:54;;;;;;;38.47;34.90;;;17.90;95.50;;;;;;4988448;28;20454;-70
2021/07/17 02:16:22;;;;;;;37.10;33.50;;;17.90;95.20;;;;;;4987542;28;20489;-70
2021/07/17 02:18:50;;;;;;;38.63;34.90;;;17.90;95.30;;;;;;4986770;28;20820;-70
2021/07/17 02:21:17;;;;;;;38.57;34.67;;;17.90;95.30;;;;;;4987244;28;20475;-70
2021/07/17 02:23:45;;;;;;;38.60;35.20;;;18.00;94.90;;;;;;4988249;28;21097;-70
2021/07/17 02:26:12;;;;;;;39.37;35.87;;;18.10;94.60;;;;;;4981352;28;20489;-70
2021/07/17 02:28:40;;;;;;;37.83;34.13;;;17.90;95.10;;;;;;4987698;28;22378;-70
2021/07/17 02:31:09;;;;;;;38.57;35.03;;;17.90;95.30;;;;;;4987906;28;20470;-70
2021/07/17 02:33:36;;;;;;;39.97;35.80;;;18.00;94.80;;;;;;4987666;28;20585;-70
2021/07/17 02:36:04;;;;;;;38.23;34.83;;;18.00;94.90;;;;;;4987822;28;20489;-70
2021/07/17 02:38:31;;;;;;;37.40;34.00;;;17.90;95.30;;;;;;4987033;28;21014;-70
2021/07/17 02:40:57;;;;;;;38.23;34.53;;;17.90;95.40;;;;;;4987293;28;20461;-70
2021/07/17 02:43:24;;;;;;;40.50;36.77;;;17.90;95.00;;;;;;4985401;28;20465;-70
2021/07/17 02:45:51;;;;;;;38.80;34.77;;;17.90;94.80;;;;;;4986284;28;20474;-70
2021/07/17 02:48:19;;;;;;;38.80;35.30;;;18.00;94.80;;;;;;4986788;28;20547;-70
2021/07/17 02:50:46;;;;;;;37.80;34.50;;;17.90;95.00;;;;;;4987096;28;20460;-70
2021/07/17 02:53:13;;;;;;;38.60;34.83;;;17.80;95.00;;;;;;4985508;28;20501;-70
2021/07/17 02:55:40;;;;;;;39.30;35.40;;;17.80;95.40;;;;;;4987679;28;20485;-70
2021/07/17 02:58:07;;;;;;;39.80;35.80;;;17.70;95.40;;;;;;4986803;28;20548;-70
2021/07/17 03:00:35;;;;;;;37.57;34.20;;;17.80;95.50;;;;;;4987059;28;20544;-70
2021/07/17 03:03:02;;;;;;;36.50;33.03;;;17.90;94.60;;;;;;4988339;28;20961;-70
2021/07/17 03:05:31;;;;;;;39.97;35.97;;;17.80;95.10;;;;;;4986872;28;20490;-70
2021/07/17 03:07:58;;;;;;;38.83;35.20;;;17.80;94.70;;;;;;4987297;28;20658;-71
2021/07/17 03:10:25;;;;;;;38.00;34.47;;;17.90;94.70;;;;;;4986291;28;20480;-70
2021/07/17 03:12:52;;;;;;;40.60;36.80;;;18.00;94.40;;;;;;4988699;28;20578;-70
2021/07/17 03:15:19;;;;;;;37.70;34.40;;;17.90;94.50;;;;;;4988286;28;20837;-70
2021/07/17 03:17:45;;;;;;;38.07;34.20;;;17.90;94.30;;;;;;4987212;28;20816;-70
2021/07/17 03:20:13;;;;;;;38.50;34.93;;;17.80;94.60;;;;;;4983965;28;21152;-70
2021/07/17 03:22:41;;;;;;;38.07;34.47;;;17.90;94.30;;;;;;4985909;28;20462;-70
2021/07/17 03:25:09;;;;;;;39.00;35.30;;;17.80;94.70;;;;;;4981638;28;20481;-70
2021/07/17 03:27:37;;;;;;;37.50;34.10;;;17.80;94.70;;;;;;4988752;28;20454;-70
2021/07/17 03:30:05;;;;;;;37.17;33.90;;;17.80;94.40;;;;;;4988615;28;20795;-70
2021/07/17 03:32:32;;;;;;;38.83;34.97;;;17.60;94.90;;;;;;4987426;28;20457;-70
2021/07/17 03:34:59;;;;;;;39.80;35.80;;;17.50;95.30;;;;;;4986754;28;20477;-70
2021/07/17 03:37:26;;;;;;;39.87;36.13;;;17.50;95.80;;;;;;4989952;28;20851;-70
2021/07/17 03:39:54;;;;;;;38.83;34.90;;;17.80;94.90;;;;;;4987600;28;20466;-71
2021/07/17 03:42:22;;;;;;;39.13;35.30;;;17.90;94.10;;;;;;4987191;28;20465;-70
2021/07/17 03:44:49;;;;;;;38.90;35.17;;;17.80;94.30;;;;;;4981016;28;20458;-70
2021/07/17 03:47:16;;;;;;;37.67;34.10;;;17.80;94.10;;;;;;4987306;28;20460;-70
2021/07/17 03:49:43;;;;;;;37.17;33.63;;;17.90;94.00;;;;;;4986785;28;20456;-70
2021/07/17 03:52:10;;;;;;;38.50;35.00;;;17.80;93.90;;;;;;4986892;28;20458;-70
2021/07/17 03:54:37;;;;;;;36.97;33.73;;;18.00;93.80;;;;;;4989495;28;20464;-70
2021/07/17 03:57:06;;;;;;;38.03;34.60;;;18.10;93.20;;;;;;4995876;28;20475;-70
2021/07/17 03:59:33;;;;;;;37.23;33.93;;;18.10;93.00;;;;;;4993112;28;20930;-70
2021/07/17 04:02:00;;;;;;;37.30;34.10;;;18.10;92.80;;;;;;4989919;28;20460;-70
2021/07/17 04:04:26;;;;;;;37.97;34.30;;;18.10;92.40;;;;;;4989721;28;20467;-70
2021/07/17 04:06:53;;;;;;;40.77;37.07;;;18.00;92.90;;;;;;4991359;28;20484;-70
2021/07/17 04:09:20;;;;;;;39.60;36.00;;;18.00;93.40;;;;;;4991396;28;20470;-70
2021/07/17 04:11:47;;;;;;;38.03;34.80;;;18.00;93.60;;;;;;4992224;28;20536;-70
2021/07/17 04:14:15;;;;;;;38.17;34.87;;;18.10;93.40;;;;;;4990849;28;21081;-70
2021/07/17 04:16:43;;;;;;;39.00;35.40;;;18.10;93.10;;;;;;4991201;28;20589;-70
2021/07/17 04:19:10;;;;;;;38.43;35.07;;;18.20;92.60;;;;;;4989998;28;20461;-70
2021/07/17 04:21:37;;;;;;;39.77;36.27;;;18.20;92.60;;;;;;4990409;28;20477;-70
2021/07/17 04:24:04;;;;;;;39.27;35.67;;;18.10;93.10;;;;;;4988770;28;20467;-70
2021/07/17 04:26:31;;;;;;;40.07;36.03;;;18.00;93.30;;;;;;4988866;28;20496;-70
2021/07/17 04:28:57;;;;;;;38.03;34.43;;;17.90;93.60;;;;;;4991757;28;20462;-70
2021/07/17 04:31:26;;;;;;;39.93;36.23;;;17.90;93.90;;;;;;4990580;28;20502;-70
2021/07/17 04:33:53;;;;;;;39.57;35.70;;;18.00;93.60;;;;;;4989723;28;20503;-70
2021/07/17 04:36:20;;;;;;;40.37;36.43;;;18.00;93.10;;;;;;4986746;28;20572;-70
2021/07/17 04:38:46;;;;;;;40.00;35.83;;;18.10;92.80;;;;;;4993168;28;20473;-70
2021/07/17 04:41:13;;;;;;;40.60;36.63;;;18.10;93.20;;;;;;4989732;28;20476;-70
2021/07/17 04:43:40;;;;;;;39.93;35.93;;;17.90;93.60;;;;;;4991373;28;20454;-70
2021/07/17 04:46:07;;;;;;;42.87;37.70;;;17.80;94.00;;;;;;4986736;28;20469;-70
2021/07/17 04:48:35;;;;;;;40.00;36.30;;;17.80;94.20;;;;;;4987068;28;20477;-70
2021/07/17 04:51:02;;;;;;;41.03;36.73;;;17.80;94.20;;;;;;4986572;28;20470;-70
2021/07/17 04:53:29;;;;;;;40.40;36.20;;;17.90;93.80;;;;;;4989498;28;21005;-70
2021/07/17 04:55:56;;;;;;;40.37;36.73;;;18.00;94.00;;;;;;4989632;28;20592;-70
2021/07/17 04:58:23;;;;;;;37.60;34.30;;;18.10;93.30;;;;;;4991447;28;20850;-70
2021/07/17 05:00:50;;;;;;;37.80;34.10;;;18.20;93.10;;;;;;4990068;28;20811;-70
2021/07/17 05:03:17;;;;;;;38.83;35.30;;;18.30;92.50;;;;;;4990672;28;20970;-70
2021/07/17 05:05:45;;;;;;;41.27;37.67;;;18.50;91.90;;;;;;4986442;28;20480;-70
2021/07/17 05:08:12;;;;;;;41.07;37.53;;;18.50;91.50;;;;;;4987754;28;20988;-70
2021/07/17 05:10:39;;;;;;;39.50;36.10;;;18.50;91.20;;;;;;4989580;28;20465;-70
2021/07/17 05:13:13;;;;;;;39.23;35.90;;;18.60;91.00;;;;;;4990148;28;20445;-70
2021/07/17 05:15:40;;;;;;;41.77;38.13;;;18.50;91.00;;;;;;4988001;28;20481;-70
2021/07/17 05:18:07;;;;;;;37.60;34.50;;;18.30;91.60;;;;;;4989396;28;20461;-70
2021/07/17 05:20:34;;;;;;;37.67;34.07;;;18.40;91.60;;;;;;4989956;28;20469;-70
2021/07/17 05:23:02;;;;;;;38.73;35.23;;;18.20;92.40;;;;;;4990402;28;20588;-70
2021/07/17 05:25:29;;;;;;;38.93;35.23;;;18.10;92.30;;;;;;4990026;28;20496;-70
2021/07/17 05:27:56;;;;;;;38.33;34.87;;;18.00;93.10;;;;;;4989399;28;20960;-70
2021/07/17 05:30:24;;;;;;;37.60;34.30;;;18.10;93.10;;;;;;4987449;28;20458;-70
2021/07/17 05:32:51;;;;;;;39.97;36.50;;;18.30;92.10;;;;;;4989363;28;20553;-70
2021/07/17 05:35:18;;;;;;;41.73;38.10;;;18.20;92.60;;;;;;4988145;28;20760;-70
2021/07/17 05:37:44;;;;;;;39.17;35.57;;;18.10;93.00;;;;;;4989134;28;20489;-70
2021/07/17 05:40:14;;;;;;;38.77;35.20;;;18.10;93.10;;;;;;4988445;28;20564;-69
2021/07/17 05:42:41;;;;;;;36.73;33.53;;;18.10;93.10;;;;;;4987516;28;20476;-70
2021/07/17 05:45:09;;;;;;;35.90;32.77;;;18.30;92.40;;;;;;4988246;28;20480;-70
2021/07/17 05:47:36;;;;;;;36.80;33.63;;;18.40;91.90;;;;;;4988618;28;20466;-70
2021/07/17 05:50:03;;;;;;;37.17;33.60;;;18.50;91.80;;;;;;4987649;28;20454;-70
2021/07/17 05:52:30;;;;;;;36.93;33.60;;;18.60;91.30;;;;;;4986288;28;20461;-70
2021/07/17 05:54:57;;;;;;;37.27;34.30;;;18.50;91.50;;;;;;4986384;28;20994;-71
2021/07/17 05:57:25;;;;;;;34.50;31.87;;;18.40;91.80;;;;;;4987627;28;20517;-70
2021/07/17 05:59:52;;;;;;;36.87;33.37;;;18.30;92.30;;;;;;4985144;28;20470;-70
2021/07/17 06:02:19;;;;;;;38.27;34.90;;;18.40;91.90;;;;;;4986034;28;20475;-70
2021/07/17 06:04:46;;;;;;;36.03;33.00;;;18.50;91.80;;;;;;4988989;28;20541;-70
2021/07/17 06:07:13;;;;;;;37.40;34.07;;;18.30;92.00;;;;;;4988829;28;20454;-70
2021/07/17 06:09:41;;;;;;;36.50;33.50;;;18.30;92.40;;;;;;4985782;28;20510;-70
2021/07/17 06:12:08;;;;;;;35.47;32.57;;;18.30;92.40;;;;;;4987691;28;20561;-70
2021/07/17 06:14:37;;;;;;;36.30;33.33;;;18.30;92.50;;;;;;4987334;28;20465;-70
2021/07/17 06:17:06;;;;;;;40.30;36.60;;;18.40;92.10;;;;;;4987471;28;20491;-70
2021/07/17 06:19:33;;;;;;;37.17;33.77;;;18.30;92.20;;;;;;4988239;28;20493;-69
2021/07/17 06:21:59;;;;;;;35.67;32.47;;;18.40;92.20;;;;;;4988208;28;20462;-70
2021/07/17 06:24:26;;;;;;;37.13;33.83;;;18.60;91.90;;;;;;4986617;28;20545;-70
2021/07/17 06:26:53;;;;;;;37.17;33.93;;;18.80;91.10;;;;;;4987453;28;20489;-73
2021/07/17 06:29:20;;;;;;;35.37;32.33;;;18.90;90.80;;;;;;4981799;28;20462;-73
2021/07/17 06:31:49;;;;;;;35.87;32.63;;;18.80;90.50;;;;;;4990243;28;20645;-73
2021/07/17 06:34:15;;;;;;;35.83;32.87;;;18.60;91.50;;;;;;4987727;28;20565;-72
2021/07/17 06:36:42;;;;;;;35.37;32.17;;;18.70;91.50;;;;;;4989151;28;20483;-72
2021/07/17 06:39:09;;;;;;;34.70;31.63;;;18.80;91.30;;;;;;4990585;28;20556;-70
2021/07/17 06:41:36;;;;;;;38.60;35.30;;;19.00;90.40;;;;;;4987719;28;20472;-70
2021/07/17 06:44:04;;;;;;;36.87;33.83;;;19.00;90.30;;;;;;4988686;28;21821;-70
2021/07/17 06:46:31;;;;;;;35.43;32.63;;;19.20;89.50;;;;;;4988422;28;20480;-69
2021/07/17 06:48:59;;;;;;;37.47;34.47;;;19.20;89.50;;;;;;4985311;28;20473;-71
2021/07/17 06:51:26;;;;;;;37.03;33.50;;;19.20;89.80;;;;;;4987442;28;21052;-70
2021/07/17 06:53:53;;;;;;;37.40;34.20;;;19.30;89.40;;;;;;4988953;28;20978;-70
2021/07/17 06:56:21;;;;;;;38.07;34.80;;;19.40;88.70;;;;;;4987526;28;20474;-70
2021/07/17 06:58:48;;;;;;;36.33;33.07;;;19.40;88.60;;;;;;4988211;28;20453;-70
2021/07/17 07:01:15;;;;;;;38.27;35.20;;;19.60;88.50;;;;;;4990845;28;20894;-70
2021/07/17 07:03:41;;;;;;;35.70;32.90;;;19.60;88.20;;;;;;4987935;28;20828;-70
2021/07/17 07:06:10;;;;;;;36.60;33.40;;;19.70;87.80;;;;;;4988181;28;20481;-70
2021/07/17 07:08:37;;;;;;;37.70;34.90;;;19.60;88.20;;;;;;4987698;28;20743;-70
2021/07/17 07:11:04;;;;;;;37.60;34.70;;;19.60;88.10;;;;;;4988409;28;20462;-69
2021/07/17 07:13:31;;;;;;;37.77;34.70;;;19.50;88.40;;;;;;4989218;28;20507;-70
2021/07/17 07:15:58;;;;;;;36.73;33.53;;;19.50;88.40;;;;;;4988065;28;20505;-70
2021/07/17 07:18:25;;;;;;;36.07;33.33;;;19.20;89.40;;;;;;4989746;28;20493;-69
2021/07/17 07:20:52;;;;;;;38.93;35.33;;;19.20;89.70;;;;;;4988575;28;20465;-70
2021/07/17 07:23:20;;;;;;;37.93;34.90;;;19.00;90.10;;;;;;4987448;28;20836;-68
2021/07/17 07:25:47;;;;;;;37.70;34.27;;;18.80;91.60;;;;;;4987555;28;20485;-69
2021/07/17 07:28:14;;;;;;;37.47;34.37;;;18.70;91.80;;;;;;4988018;28;20460;-69
2021/07/17 07:30:41;;;;;;;36.40;33.50;;;18.80;91.40;;;;;;4991045;28;20473;-70
2021/07/17 07:33:08;;;;;;;35.47;32.37;;;18.70;92.00;;;;;;4991406;28;20505;-70
2021/07/17 07:35:35;;;;;;;37.57;34.40;;;18.70;92.20;;;;;;4985522;28;20486;-70
2021/07/17 07:38:02;;;;;;;35.87;32.47;;;18.90;91.90;;;;;;4996897;28;20477;-72
2021/07/17 07:40:30;;;;;;;34.70;32.00;;;19.20;90.50;;;;;;4991150;28;20469;-69
2021/07/17 07:42:57;;;;;;;37.43;34.23;;;19.30;90.10;;;;;;4991452;28;20457;-69
2021/07/17 07:45:25;;;;;;;34.90;31.97;;;19.40;89.30;;;;;;4991611;28;20485;-69
2021/07/17 07:47:52;;;;;;;35.40;31.97;;;19.30;89.80;;;;;;4993036;28;20470;-69
2021/07/17 07:50:21;;;;;;;36.40;33.37;;;19.10;90.30;;;;;;4991402;28;20573;-69
2021/07/17 07:52:48;;;;;;;38.17;34.67;;;19.00;91.10;;;;;;4992186;28;20470;-71
2021/07/17 07:55:15;;;;;;;33.77;31.17;;;19.20;91.00;;;;;;4980205;28;20596;-70
2021/07/17 07:57:45;;;;;;;36.77;33.20;;;19.50;89.70;;;;;;4989467;28;20501;-71
2021/07/17 08:00:13;;;;;;;36.40;33.23;;;19.80;88.20;;;;;;4989774;28;21254;-70
2021/07/17 08:02:41;;;;;;;37.27;33.90;;;19.80;88.30;;;;;;4987990;28;20490;-71
2021/07/17 08:05:09;;;;;;;36.13;32.83;;;19.80;87.90;;;;;;4989237;28;20492;-73
2021/07/17 08:07:36;;;;;;;36.70;33.20;;;19.80;88.20;;;;;;4990147;28;20461;-72
2021/07/17 08:10:04;;;;;;;38.23;34.83;;;19.70;88.30;;;;;;4988748;28;20457;-70
2021/07/17 08:12:31;;;;;;;36.77;33.77;;;19.40;89.50;;;;;;4989088;28;20465;-69
2021/07/17 08:14:59;;;;;;;38.90;35.20;;;19.40;89.90;;;;;;4990339;28;20486;-70
2021/07/17 08:17:26;;;;;;;40.23;36.73;;;19.20;91.20;;;;;;4989637;28;20477;-72
2021/07/17 08:19:53;;;;;;;38.00;34.40;;;19.00;91.90;;;;;;4987609;28;20560;-70
2021/07/17 08:22:20;;;;;;;38.70;34.77;;;18.90;92.20;;;;;;4989076;28;20454;-69
2021/07/17 08:24:47;;;;;;;38.47;34.67;;;18.80;92.80;;;;;;4989938;28;20466;-70
2021/07/17 08:27:14;;;;;;;38.27;34.40;;;18.90;92.70;;;;;;4990700;28;20458;-70
2021/07/17 08:29:41;;;;;;;37.60;34.33;;;18.70;93.30;;;;;;4990054;28;20927;-69
2021/07/17 08:32:09;;;;;;;39.67;35.90;;;18.70;93.50;;;;;;4990623;28;20971;-69
2021/07/17 08:34:36;;;;;;;37.07;33.80;;;18.80;93.40;;;;;;4988250;28;20466;-71
2021/07/17 08:37:07;;;;;;;37.30;33.83;;;19.10;92.80;;;;;;4989271;28;20485;-71
2021/07/17 08:39:35;;;;;;;41.17;37.37;;;19.30;91.70;;;;;;4987844;28;20810;-71
2021/07/17 08:42:04;;;;;;;38.20;34.83;;;19.50;91.30;;;;;;4987884;28;20453;-71
2021/07/17 08:44:32;;;;;;;40.00;36.20;;;19.80;89.70;;;;;;4987973;28;20530;-71
2021/07/17 08:47:02;;;;;;;40.53;36.93;;;19.80;88.80;;;;;;4989571;28;20454;-71
2021/07/17 08:49:31;;;;;;;37.93;34.77;;;19.90;88.90;;;;;;4987654;28;20466;-71
2021/07/17 08:51:59;;;;;;;38.47;34.77;;;19.90;88.90;;;;;;4986953;28;20493;-71
2021/07/17 08:54:27;;;;;;;37.00;33.90;;;20.00;87.90;;;;;;4986152;28;20475;-71
2021/07/17 08:56:56;;;;;;;38.40;35.10;;;20.10;87.60;;;;;;4992170;28;20481;-71
2021/07/17 08:59:23;;;;;;;41.13;37.73;;;20.20;87.70;;;;;;4987796;28;20550;-70
2021/07/17 09:01:50;;;;;;;38.50;35.07;;;20.10;87.10;;;;;;4986607;28;20543;-72
2021/07/17 09:04:25;;;;;;;38.17;35.00;;;20.20;87.30;;;;;;4988184;28;20465;-70
2021/07/17 09:06:54;;;;;;;38.90;35.60;;;20.30;86.70;;;;;;4989475;28;20508;-70
2021/07/17 09:09:29;;;;;;;40.43;37.30;;;20.30;86.30;;;;;;4985589;28;23100;-71
2021/07/17 09:11:57;;;;;;;39.47;36.27;;;20.20;86.80;;;;;;4987427;28;20462;-71
2021/07/17 09:14:38;;;;;;;39.80;36.40;;;20.10;87.30;;;;;;4989135;28;20464;-70
2021/07/17 09:17:07;;;;;;;38.17;35.20;;;20.20;87.10;;;;;;4987445;28;21049;-72
2021/07/17 09:19:34;;;;;;;39.07;35.93;;;20.40;86.40;;;;;;4985950;28;20457;-71
2021/07/17 09:22:03;;;;;;;36.53;33.60;;;20.50;85.80;;;;;;4989429;28;20457;-71
2021/07/17 09:24:30;;;;;;;36.33;33.63;;;20.50;85.70;;;;;;4989346;28;21074;-71
2021/07/17 09:26:59;;;;;;;37.83;34.73;;;20.50;85.80;;;;;;4987913;28;20481;-71
2021/07/17 09:29:36;;;;;;;39.40;36.10;;;20.60;85.30;;;;;;4989034;28;20469;-70
2021/07/17 09:32:03;;;;;;;37.50;34.20;;;20.70;85.10;;;;;;4989269;28;20454;-71
2021/07/17 09:34:32;;;;;;;39.07;36.10;;;20.60;85.40;;;;;;4988566;28;20468;-71
2021/07/17 09:37:00;;;;;;;38.20;34.80;;;20.30;86.20;;;;;;4986028;28;20978;-70
2021/07/17 09:39:31;;;;;;;38.60;35.53;;;20.20;86.40;;;;;;4984648;28;20463;-71
2021/07/17 09:41:59;;;;;;;38.93;35.77;;;20.10;86.80;;;;;;4986655;28;20557;-70
2021/07/17 09:44:28;;;;;;;38.90;35.20;;;20.00;87.50;;;;;;4988813;28;20556;-70
2021/07/17 09:46:55;;;;;;;38.73;35.67;;;20.00;87.90;;;;;;4987011;28;20571;-69
2021/07/17 09:49:24;;;;;;;37.20;34.10;;;20.00;88.20;;;;;;4986866;28;20470;-69
2021/07/17 09:52:07;;;;;;;37.10;34.30;;;20.10;87.60;;;;;;4986625;28;20492;-69
2021/07/17 09:54:36;;;;;;;37.00;33.67;;;20.30;87.20;;;;;;4986384;28;20588;-69
2021/07/17 09:57:04;;;;;;;38.10;34.87;;;20.50;86.30;;;;;;4986222;28;20466;-69
2021/07/17 09:59:31;;;;;;;36.63;33.63;;;20.60;86.30;;;;;;4986729;28;20483;-69
2021/07/17 10:01:58;;;;;;;37.80;34.53;;;20.50;85.60;;;;;;4987862;28;20472;-69
2021/07/17 10:04:25;;;;;;;36.60;33.47;;;20.50;85.60;;;;;;4987977;28;20465;-69
2021/07/17 10:06:58;;;;;;;36.90;33.63;;;20.50;85.70;;;;;;4986741;28;20480;-69
2021/07/17 10:09:31;;;;;;;38.77;35.50;;;20.50;85.70;;;;;;4982955;28;20477;-69
2021/07/17 10:12:02;;;;;;;37.97;34.67;;;20.30;86.00;;;;;;4988173;28;21035;-69
2021/07/17 10:14:33;;;;;;;36.10;33.37;;;20.20;86.90;;;;;;4984143;28;20556;-69
2021/07/17 10:17:06;;;;;;;36.83;33.40;;;20.20;86.80;;;;;;4988304;28;21032;-70
2021/07/17 10:19:33;;;;;;;39.13;35.60;;;20.60;86.40;;;;;;4985567;28;20478;-69
2021/07/17 10:22:01;;;;;;;39.37;36.17;;;20.90;85.30;;;;;;4987569;28;20462;-69
2021/07/17 10:24:28;;;;;;;36.40;33.50;;;21.20;83.50;;;;;;4988414;28;20511;-72
2021/07/17 10:26:56;;;;;;;37.73;34.80;;;20.80;84.70;;;;;;4988714;28;20589;-69
2021/07/17 10:29:26;;;;;;;41.57;37.80;;;20.80;85.20;;;;;;4987468;28;20476;-70
2021/07/17 10:31:54;;;;;;;39.37;36.07;;;20.80;85.60;;;;;;4987317;28;21082;-70
2021/07/17 10:34:22;;;;;;;38.97;35.73;;;20.90;84.80;;;;;;4987818;28;20596;-70
2021/07/17 10:36:55;;;;;;;39.13;35.83;;;21.00;84.00;;;;;;4985355;28;20492;-70
2021/07/17 10:39:25;;;;;;;39.67;36.40;;;21.20;83.90;;;;;;4989562;28;20485;-70
2021/07/17 10:41:53;;;;;;;38.57;35.43;;;21.20;83.80;;;;;;4987728;28;20457;-69
2021/07/17 10:44:44;;;;;;;40.60;37.30;;;21.30;84.10;;;;;;4987555;28;20465;-69
2021/07/17 10:47:11;;;;;;;40.93;37.43;;;21.10;83.70;;;;;;4987072;28;20476;-71
2021/07/17 10:49:40;;;;;;;40.47;37.00;;;21.00;84.20;;;;;;4983943;28;20454;-71
2021/07/17 10:52:08;;;;;;;38.67;35.50;;;20.90;84.60;;;;;;4987445;28;21002;-71
2021/07/17 10:54:36;;;;;;;40.10;36.80;;;21.00;84.30;;;;;;4986076;28;20472;-71
2021/07/17 10:57:04;;;;;;;38.70;35.73;;;21.10;83.80;;;;;;4987490;28;20462;-71
2021/07/17 10:59:53;;;;;;;40.00;36.87;;;21.00;84.00;;;;;;4984621;28;20478;-71
2021/07/17 11:02:25;;;;;;;41.07;37.63;;;21.00;84.40;;;;;;4986775;28;20458;-71
2021/07/17 11:04:55;;;;;;;38.80;35.60;;;21.20;84.00;;;;;;4984891;28;20489;-71
2021/07/17 11:07:43;;;;;;;38.63;35.50;;;21.40;83.20;;;;;;4987902;28;20926;-72
2021/07/17 11:10:15;;;;;;;42.43;38.93;;;21.80;82.60;;;;;;4985909;28;20450;-71
2021/07/17 11:13:00;;;;;;;40.20;37.20;;;21.90;81.50;;;;;;4986066;28;20481;-71
2021/07/17 11:15:49;;;;;;;41.83;38.13;;;21.80;81.70;;;;;;4986909;28;20481;-74
2021/07/17 11:18:36;;;;;;;40.60;37.50;;;21.60;82.00;;;;;;4984647;28;20531;-70
2021/07/17 11:21:09;;;;;;;38.47;35.60;;;21.80;82.10;;;;;;4989323;28;20465;-70
2021/07/17 11:23:39;;;;;;;38.60;35.40;;;21.80;81.30;;;;;;4986815;28;20454;-70
2021/07/17 11:26:09;;;;;;;41.13;37.73;;;21.80;82.10;;;;;;4986652;28;20584;-70
2021/07/17 11:28:53;;;;;;;40.53;37.33;;;22.00;81.60;;;;;;4988215;28;20625;-70
2021/07/17 11:31:56;;;;;;;42.87;39.17;;;22.00;81.10;;;;;;4986139;28;20453;-70
2021/07/17 11:34:35;;;;;;;41.30;38.00;;;21.70;81.60;;;;;;4988300;28;20476;-70
2021/07/17 11:37:06;;;;;;;40.50;36.93;;;21.30;82.80;;;;;;4987496;28;20947;-70
2021/07/17 11:39:35;;;;;;;41.37;38.30;;;21.40;83.00;;;;;;4989121;28;20560;-70
2021/07/17 11:42:04;;;;;;;41.80;38.70;;;21.50;82.50;;;;;;4988062;28;20464;-70
2021/07/17 11:44:33;;;;;;;38.77;35.97;;;21.50;82.60;;;;;;4983957;28;20472;-69
2021/07/17 11:47:02;;;;;;;39.47;36.17;;;21.60;82.10;;;;;;4986318;28;20493;-69
2021/07/17 11:49:32;;;;;;;42.27;38.77;;;21.50;82.30;;;;;;4984652;28;20470;-69
2021/07/17 11:52:02;;;;;;;40.00;36.90;;;21.50;83.20;;;;;;4987285;28;20453;-70
2021/07/17 11:54:30;;;;;;;38.00;35.00;;;21.60;82.90;;;;;;4986905;28;20461;-71
2021/07/17 11:57:07;;;;;;;39.10;35.90;;;21.80;82.00;;;;;;4987154;28;20489;-70
2021/07/17 11:59:35;;;;;;;39.83;36.73;;;21.60;82.50;;;;;;4986279;28;21000;-70
2021/07/17 12:02:08;;;;;;;38.37;35.07;;;21.30;83.70;;;;;;4990017;28;20828;-71
2021/07/17 12:04:36;;;;;;;42.40;38.97;;;21.40;83.90;;;;;;4986674;28;20474;-70
2021/07/17 12:07:05;;;;;;;38.77;35.50;;;21.60;83.30;;;;;;4987543;28;20457;-71
2021/07/17 12:09:33;;;;;;;38.60;35.60;;;21.90;82.50;;;;;;4986545;28;20458;-71
2021/07/17 12:12:27;;;;;;;37.20;34.10;;;21.70;82.50;;;;;;4982936;28;20998;-71
2021/07/17 12:15:09;;;;;;;38.30;35.40;;;21.70;82.90;;;;;;4986333;28;20500;-71
2021/07/17 12:17:39;;;;;;;42.40;38.93;;;21.70;82.50;;;;;;4991747;28;20464;-70
2021/07/17 12:20:15;;;;;;;38.10;35.30;;;21.60;83.00;;;;;;4989091;28;20486;-70
2021/07/17 12:22:49;;;;;;;39.03;36.00;;;21.30;83.60;;;;;;4991372;28;20453;-71
2021/07/17 12:25:18;;;;;;;37.30;34.27;;;21.30;83.60;;;;;;4989064;28;21076;-70
2021/07/17 12:28:00;;;;;;;37.43;34.63;;;21.60;83.00;;;;;;4988449;28;20449;-71
2021/07/17 12:30:29;;;;;;;40.57;37.60;;;21.70;82.40;;;;;;4989953;28;20449;-71
2021/07/17 12:33:17;;;;;;;38.53;35.83;;;21.80;81.90;;;;;;4991349;28;20481;-70
2021/07/17 12:35:45;;;;;;;38.70;35.70;;;22.00;81.70;;;;;;4990032;28;20995;-71